createdAt,value
2023-07-24T00:00:04.634Z,7.15
2023-07-24T00:03:06.121Z,9.15
2023-07-24T00:06:07.627Z,11.88
2023-07-24T00:09:09.056Z,13.27
2023-07-24T00:12:10.438Z,11.35
2023-07-24T00:15:11.991Z,9.85
2023-07-24T00:18:13.380Z,12.65
2023-07-24T00:21:14.850Z,10.75
2023-07-24T00:24:16.379Z,10.18
2023-07-24T00:27:17.812Z,10.25
2023-07-24T00:30:19.339Z,8.65
2023-07-24T00:33:20.758Z,11.50
2023-07-24T00:36:23.362Z,9.55
2023-07-24T00:39:24.852Z,9.27
2023-07-24T00:42:26.281Z,9.23
2023-07-24T00:45:27.794Z,9.25
2023-07-24T00:48:29.660Z,11.00
2023-07-24T00:51:31.934Z,10.00
2023-07-24T00:54:34.947Z,12.23
2023-07-24T00:57:36.575Z,10.82
2023-07-24T01:00:39.680Z,11.25
2023-07-24T01:03:41.193Z,10.40
2023-07-24T01:06:42.761Z,8.73
2023-07-24T01:09:44.366Z,9.00
2023-07-24T01:13:01.113Z,10.52
2023-07-24T01:16:10.678Z,12.63
2023-07-24T01:19:47.376Z,11.40
2023-07-24T01:23:06.886Z,10.10
2023-07-24T01:26:09.107Z,12.30
2023-07-24T01:29:10.519Z,10.48
2023-07-24T01:32:11.957Z,11.20
2023-07-24T01:35:13.581Z,10.43
2023-07-24T01:38:15.683Z,13.63
2023-07-24T01:41:17.981Z,11.52
2023-07-24T01:44:19.484Z,10.63
2023-07-24T01:47:21.396Z,10.02
2023-07-24T01:50:22.829Z,10.80
2023-07-24T01:53:24.288Z,14.38
2023-07-24T01:56:25.794Z,10.52
2023-07-24T01:59:27.277Z,12.38
2023-07-24T02:02:28.744Z,9.82
2023-07-24T02:05:30.849Z,11.55
2023-07-24T02:08:32.288Z,10.75
2023-07-24T02:11:33.729Z,11.10
2023-07-24T02:14:35.174Z,11.85
2023-07-24T02:17:36.870Z,8.68
2023-07-24T02:20:38.297Z,12.90
2023-07-24T02:23:39.830Z,14.60
2023-07-24T02:26:41.231Z,11.73
2023-07-24T02:29:42.636Z,10.80
2023-07-24T02:32:44.089Z,9.57
2023-07-24T02:35:45.582Z,12.32
2023-07-24T02:38:47.032Z,13.43
2023-07-24T02:41:51.320Z,10.13
2023-07-24T02:44:54.178Z,9.57
2023-07-24T02:47:55.661Z,13.45
2023-07-24T02:50:57.143Z,11.48
2023-07-24T02:53:58.613Z,13.00
2023-07-24T02:57:00.043Z,12.73
2023-07-24T03:00:01.451Z,11.65
2023-07-24T03:03:03.025Z,9.85
2023-07-24T03:06:04.509Z,9.90
2023-07-24T03:09:05.919Z,12.30
2023-07-24T03:12:07.664Z,11.95
2023-07-24T03:15:09.450Z,12.02
2023-07-24T03:18:10.868Z,13.48
2023-07-24T03:21:12.346Z,14.27
2023-07-24T03:24:13.780Z,13.23
2023-07-24T03:27:15.258Z,13.70
2023-07-24T03:30:16.707Z,13.35
2023-07-24T03:33:18.106Z,13.43
2023-07-24T03:36:19.817Z,13.27
2023-07-24T03:39:21.964Z,12.52
2023-07-24T03:42:28.221Z,12.48
2023-07-24T03:45:29.822Z,12.77
2023-07-24T03:48:31.212Z,9.32
2023-07-24T03:51:34.316Z,11.23
2023-07-24T03:54:35.737Z,12.50
2023-07-24T03:57:37.319Z,12.13
2023-07-24T04:00:38.791Z,11.43
2023-07-24T04:03:40.347Z,13.43
2023-07-24T04:06:41.790Z,12.25
2023-07-24T04:09:43.250Z,12.05
2023-07-24T04:12:44.652Z,13.25
2023-07-24T04:15:46.171Z,13.55
2023-07-24T04:18:47.553Z,14.05
2023-07-24T04:21:48.984Z,12.98
2023-07-24T04:24:50.474Z,14.02
2023-07-24T04:27:51.999Z,12.20
2023-07-24T04:30:53.511Z,16.73
2023-07-24T04:33:54.998Z,12.30
2023-07-24T04:36:56.399Z,12.10
2023-07-24T04:39:58.049Z,11.75
2023-07-24T04:42:59.540Z,15.52
2023-07-24T04:46:01.031Z,12.40
2023-07-24T04:49:02.481Z,13.38
2023-07-24T04:52:04.269Z,14.35
2023-07-24T04:55:06.260Z,15.35
2023-07-24T04:58:07.645Z,12.57
2023-07-24T05:01:10.256Z,13.45
2023-07-24T05:04:11.768Z,15.18
2023-07-24T05:07:13.201Z,13.75
2023-07-24T05:10:14.806Z,12.60
2023-07-24T05:13:16.324Z,14.35
2023-07-24T05:16:17.785Z,14.38
2023-07-24T05:19:19.208Z,12.77
2023-07-24T05:22:20.768Z,14.07
2023-07-24T05:25:22.271Z,15.38
2023-07-24T05:28:23.680Z,13.10
2023-07-24T05:31:25.140Z,14.10
2023-07-24T05:34:27.172Z,16.05
2023-07-24T05:37:28.581Z,14.75
2023-07-24T05:40:29.965Z,17.95
2023-07-24T05:43:32.258Z,15.23
2023-07-24T05:46:33.953Z,13.20
2023-07-24T05:49:35.575Z,13.70
2023-07-24T05:52:36.984Z,12.50
2023-07-24T05:55:38.422Z,15.38
2023-07-24T05:58:39.821Z,15.25
2023-07-24T06:01:41.382Z,14.38
2023-07-24T06:04:42.827Z,12.80
2023-07-24T06:07:44.423Z,11.85
2023-07-24T06:10:48.942Z,14.75
2023-07-24T06:13:50.597Z,13.52
2023-07-24T06:16:52.037Z,13.73
2023-07-24T06:19:53.435Z,16.17
2023-07-24T06:22:54.834Z,18.88
2023-07-24T06:25:56.456Z,13.70
2023-07-24T06:28:57.923Z,15.15
2023-07-24T06:31:59.343Z,12.88
2023-07-24T06:35:00.768Z,11.93
2023-07-24T06:38:02.224Z,12.38
2023-07-24T06:41:04.133Z,14.88
2023-07-24T06:44:05.572Z,13.70
2023-07-24T06:47:07.049Z,14.32
2023-07-24T06:50:09.059Z,18.45
2023-07-24T06:53:10.553Z,12.98
2023-07-24T06:56:12.044Z,14.48
2023-07-24T06:59:13.513Z,11.45
2023-07-24T07:02:14.940Z,15.48
2023-07-24T07:05:16.511Z,13.05
2023-07-24T07:08:17.911Z,16.33
2023-07-24T07:11:19.327Z,15.60
2023-07-24T07:14:20.802Z,15.23
2023-07-24T07:17:22.260Z,12.75
2023-07-24T07:20:23.711Z,13.98
2023-07-24T07:23:25.152Z,11.82
2023-07-24T07:26:26.631Z,17.23
2023-07-24T07:29:28.098Z,13.77
2023-07-24T07:32:29.552Z,11.73
2023-07-24T07:35:31.053Z,14.32
2023-07-24T07:38:33.057Z,17.33
2023-07-24T07:41:34.485Z,13.70
2023-07-24T07:44:35.975Z,12.32
2023-07-24T07:47:37.748Z,15.20
2023-07-24T07:50:39.239Z,16.00
2023-07-24T07:53:41.421Z,13.35
2023-07-24T07:56:43.264Z,12.75
2023-07-24T07:59:44.758Z,13.70
2023-07-24T08:02:46.170Z,13.63
2023-07-24T08:05:47.651Z,15.75
2023-07-24T08:08:49.113Z,12.45
2023-07-24T08:11:52.244Z,14.45
2023-07-24T08:14:53.648Z,14.13
2023-07-24T08:17:55.077Z,14.40
2023-07-24T08:20:56.517Z,12.43
2023-07-24T08:23:59.100Z,15.38
2023-07-24T08:27:00.522Z,13.80
2023-07-24T08:30:02.000Z,12.35
2023-07-24T08:33:03.979Z,14.10
2023-07-24T08:36:07.582Z,11.52
2023-07-24T08:39:09.015Z,12.93
2023-07-24T08:42:12.245Z,17.52
2023-07-24T08:45:14.839Z,12.68
2023-07-24T08:48:16.638Z,14.35
2023-07-24T08:51:19.927Z,13.90
2023-07-24T08:54:21.415Z,12.20
2023-07-24T08:57:23.072Z,16.80
2023-07-24T09:00:24.540Z,15.30
2023-07-24T09:03:26.425Z,11.30
2023-07-24T09:06:28.861Z,19.45
2023-07-24T09:09:32.120Z,10.00
2023-07-24T09:12:33.518Z,25.63
2023-07-24T09:15:44.896Z,14.68
2023-07-24T09:18:46.313Z,12.23
2023-07-24T09:21:47.788Z,14.85
2023-07-24T09:24:53.975Z,11.15
2023-07-24T09:27:55.613Z,13.18
2023-07-24T09:30:59.229Z,11.52
2023-07-24T09:34:00.795Z,11.88
2023-07-24T09:37:02.426Z,13.02
2023-07-24T09:40:07.451Z,14.40
2023-07-24T09:43:40.988Z,14.88
2023-07-24T09:46:47.789Z,12.45
2023-07-24T09:50:04.898Z,15.07
2023-07-24T09:53:07.081Z,15.48
2023-07-24T09:56:10.643Z,13.85
2023-07-24T09:59:13.291Z,13.23
2023-07-24T10:02:14.832Z,15.55
2023-07-24T10:05:17.061Z,15.10
2023-07-24T10:08:20.037Z,16.10
2023-07-24T10:11:21.688Z,12.30
2023-07-24T10:14:23.391Z,12.63
2023-07-24T10:17:41.920Z,13.57
2023-07-24T10:20:43.585Z,16.45
2023-07-24T10:23:50.026Z,13.23
2023-07-24T10:26:56.190Z,14.63
2023-07-24T10:30:22.599Z,13.38
2023-07-24T10:33:33.155Z,17.00
2023-07-24T10:36:37.023Z,13.15
2023-07-24T10:39:42.648Z,16.55
2023-07-24T10:42:44.141Z,12.57
2023-07-24T10:45:52.496Z,13.63
2023-07-24T10:48:53.984Z,12.63
2023-07-24T10:51:59.236Z,13.35
2023-07-24T10:55:04.838Z,13.70
2023-07-24T10:58:07.350Z,13.38
2023-07-24T11:01:10.495Z,12.52
2023-07-24T11:04:13.714Z,11.60
2023-07-24T11:07:15.770Z,11.02
2023-07-24T11:10:22.232Z,14.68
2023-07-24T11:13:28.855Z,12.00
2023-07-24T11:16:34.578Z,11.73
2023-07-24T11:19:36.503Z,14.82
2023-07-24T11:22:43.465Z,13.35
2023-07-24T11:25:45.831Z,11.13
2023-07-24T11:28:47.259Z,16.63
2023-07-24T11:31:55.158Z,12.38
2023-07-24T11:34:57.387Z,12.80
2023-07-24T11:37:58.957Z,16.80
2023-07-24T11:41:02.260Z,14.88
2023-07-24T11:44:04.119Z,13.45
2023-07-24T11:47:06.996Z,15.63
2023-07-24T11:50:09.050Z,16.13
2023-07-24T11:53:23.258Z,13.18
2023-07-24T11:56:24.724Z,14.35
2023-07-24T11:59:26.961Z,13.10
2023-07-24T12:02:29.383Z,16.70
2023-07-24T12:05:31.056Z,14.68
2023-07-24T12:08:34.822Z,12.10
2023-07-24T12:11:46.593Z,12.53
2023-07-24T12:14:48.448Z,14.60
2023-07-24T12:17:49.914Z,13.38
2023-07-24T12:20:51.469Z,12.55
2023-07-24T12:23:52.924Z,14.27
2023-07-24T12:26:54.351Z,12.80
2023-07-24T12:29:55.890Z,14.25
2023-07-24T12:32:57.449Z,12.70
2023-07-24T12:35:58.888Z,12.68
2023-07-24T12:39:00.330Z,12.43
2023-07-24T12:42:01.768Z,10.35
2023-07-24T12:45:06.129Z,10.93
2023-07-24T12:48:07.789Z,13.63
2023-07-24T12:51:09.431Z,13.48
2023-07-24T12:54:22.290Z,11.35
2023-07-24T12:57:32.320Z,11.15
2023-07-24T13:00:33.876Z,9.93
2023-07-24T13:03:35.756Z,9.15
2023-07-24T13:06:37.698Z,10.65
2023-07-24T13:09:39.143Z,9.77
2023-07-24T13:12:40.542Z,9.50
2023-07-24T13:15:42.073Z,10.82
2023-07-24T13:18:44.167Z,9.25
2023-07-24T13:21:47.114Z,8.27
2023-07-24T13:24:48.729Z,8.38
2023-07-24T13:27:51.357Z,7.40
2023-07-24T13:30:53.025Z,7.90
2023-07-24T13:33:54.504Z,8.55
2023-07-24T13:36:56.012Z,10.73
2023-07-24T13:39:57.416Z,8.55
2023-07-24T13:42:58.874Z,9.45
2023-07-24T13:46:00.513Z,7.13
2023-07-24T13:49:02.035Z,7.85
2023-07-24T13:52:03.643Z,9.20
2023-07-24T13:55:05.814Z,8.23
2023-07-24T13:58:07.291Z,7.03
2023-07-24T14:01:08.786Z,8.63
2023-07-24T14:04:10.356Z,7.47
2023-07-24T14:07:14.061Z,6.93
2023-07-24T14:10:15.606Z,6.73
2023-07-24T14:13:17.002Z,7.97
2023-07-24T14:16:18.801Z,6.43
2023-07-24T14:19:20.340Z,6.40
2023-07-24T14:22:21.803Z,5.45
2023-07-24T14:25:23.259Z,8.65
2023-07-24T14:28:24.718Z,6.07
2023-07-24T14:31:26.304Z,6.95
2023-07-24T14:34:27.821Z,8.20
2023-07-24T14:37:29.403Z,8.27
2023-07-24T14:40:30.833Z,6.25
2023-07-24T14:43:32.448Z,6.82
2023-07-24T14:46:33.919Z,8.45
2023-07-24T14:49:35.412Z,8.50
2023-07-24T14:52:36.949Z,8.68
2023-07-24T14:55:38.450Z,8.25
2023-07-24T14:58:43.025Z,8.75
2023-07-24T15:01:44.569Z,8.50
2023-07-24T15:04:52.116Z,7.72
2023-07-24T15:07:53.602Z,8.20
2023-07-24T15:10:55.134Z,5.72
2023-07-24T15:13:56.544Z,7.15
2023-07-24T15:16:58.052Z,6.20
2023-07-24T15:19:59.455Z,6.53
2023-07-24T15:23:01.113Z,9.18
2023-07-24T15:26:02.744Z,4.70
2023-07-24T15:29:04.430Z,5.20
2023-07-24T15:32:07.055Z,6.28
2023-07-24T15:35:08.569Z,5.50
2023-07-24T15:38:09.997Z,7.60
2023-07-24T15:41:11.417Z,4.78
2023-07-24T15:44:12.830Z,5.30
2023-07-24T15:47:14.290Z,6.47
2023-07-24T15:50:15.929Z,5.43
2023-07-24T15:53:17.310Z,7.20
2023-07-24T15:56:18.884Z,7.30
2023-07-24T15:59:20.357Z,6.32
2023-07-24T16:02:21.878Z,8.80
2023-07-24T16:05:23.447Z,7.18
2023-07-24T16:08:25.228Z,7.38
2023-07-24T16:11:28.248Z,6.70
2023-07-24T16:14:30.098Z,10.05
2023-07-24T16:17:33.742Z,6.68
2023-07-24T16:20:36.055Z,7.43
2023-07-24T16:23:37.726Z,8.18
2023-07-24T16:26:39.940Z,7.53
2023-07-24T16:29:41.382Z,9.90
2023-07-24T16:32:49.145Z,8.05
2023-07-24T16:35:52.232Z,8.00
2023-07-24T16:38:53.717Z,8.32
2023-07-24T16:41:55.328Z,7.32
2023-07-24T16:44:59.504Z,9.50
2023-07-24T16:48:03.224Z,8.85
2023-07-24T16:51:05.156Z,11.27
2023-07-24T16:54:06.834Z,7.90
2023-07-24T16:57:08.290Z,6.93
2023-07-24T17:00:10.436Z,7.47
2023-07-24T17:03:12.097Z,8.30
2023-07-24T17:06:13.543Z,8.80
2023-07-24T17:09:15.037Z,9.57
2023-07-24T17:12:16.638Z,7.28
2023-07-24T17:15:18.105Z,13.52
2023-07-24T17:18:19.554Z,8.63
2023-07-24T17:21:22.496Z,10.38
2023-07-24T17:24:24.062Z,7.97
2023-07-24T17:27:26.370Z,8.38
2023-07-24T17:30:27.802Z,6.85
2023-07-24T17:33:29.241Z,10.35
2023-07-24T17:36:30.647Z,12.45
2023-07-24T17:39:32.071Z,10.45
2023-07-24T17:42:33.617Z,11.15
2023-07-24T17:45:35.524Z,9.40
2023-07-24T17:48:37.961Z,8.35
2023-07-24T17:51:39.474Z,8.80
2023-07-24T17:54:46.669Z,6.40
2023-07-24T17:57:50.751Z,7.25
2023-07-24T18:00:53.623Z,4.85
2023-07-24T18:03:55.093Z,4.75
2023-07-24T18:06:56.754Z,3.90
2023-07-24T18:09:58.138Z,3.33
2023-07-24T18:12:59.898Z,3.08
2023-07-24T18:16:01.324Z,4.00
2023-07-24T18:19:04.820Z,6.43
2023-07-24T18:22:06.287Z,4.72
2023-07-24T18:25:08.308Z,5.82
2023-07-24T18:28:12.627Z,2.33
2023-07-24T18:31:14.208Z,2.72
2023-07-24T18:34:16.348Z,4.75
2023-07-24T18:37:17.749Z,8.73
2023-07-24T18:40:19.178Z,4.88
2023-07-24T18:43:20.582Z,4.47
2023-07-24T18:46:22.068Z,5.13
2023-07-24T18:49:23.733Z,3.72
2023-07-24T18:52:25.132Z,6.63
2023-07-24T18:55:26.530Z,4.30
2023-07-24T18:58:28.010Z,5.40
2023-07-24T19:01:29.876Z,5.35
2023-07-24T19:04:31.562Z,7.70
2023-07-24T19:07:32.947Z,4.97
2023-07-24T19:10:34.508Z,3.55
2023-07-24T19:13:37.124Z,3.75
2023-07-24T19:16:38.852Z,5.63
2023-07-24T19:19:40.334Z,3.42
2023-07-24T19:22:41.771Z,4.43
2023-07-24T19:25:43.236Z,4.65
2023-07-24T19:28:50.892Z,6.00
2023-07-24T19:31:53.716Z,4.47
2023-07-24T19:34:57.226Z,5.90
2023-07-24T19:37:58.682Z,5.78
2023-07-24T19:41:01.993Z,5.88
2023-07-24T19:44:03.445Z,4.10
2023-07-24T19:47:05.301Z,4.45
2023-07-24T19:50:07.379Z,7.40
2023-07-24T19:53:08.916Z,4.57
2023-07-24T19:56:10.510Z,7.82
2023-07-24T19:59:11.989Z,4.70
2023-07-24T20:02:13.748Z,4.35
2023-07-24T20:05:15.254Z,6.80
2023-07-24T20:08:16.714Z,4.80
2023-07-24T20:11:18.165Z,5.50
2023-07-24T20:14:19.661Z,7.32
2023-07-24T20:17:21.138Z,4.85
2023-07-24T20:20:22.642Z,5.53
2023-07-24T20:23:24.485Z,4.78
2023-07-24T20:26:25.962Z,7.93
2023-07-24T20:29:27.404Z,7.55
2023-07-24T20:32:30.552Z,6.00
2023-07-24T20:35:33.367Z,7.57
2023-07-24T20:38:36.372Z,8.63
2023-07-24T20:41:37.819Z,5.05
2023-07-24T20:44:39.207Z,4.65
2023-07-24T20:47:40.685Z,4.45
2023-07-24T20:50:42.141Z,4.78
2023-07-24T20:53:43.916Z,6.60
2023-07-24T20:56:45.317Z,4.82
2023-07-24T20:59:47.576Z,6.85
2023-07-24T21:02:49.140Z,5.65
2023-07-24T21:05:50.695Z,5.38
2023-07-24T21:08:52.183Z,4.82
2023-07-24T21:11:53.625Z,5.85
2023-07-24T21:14:55.058Z,6.65
2023-07-24T21:17:56.522Z,4.75
2023-07-24T21:21:00.660Z,5.85
2023-07-24T21:24:03.353Z,5.60
2023-07-24T21:27:04.996Z,3.85
2023-07-24T21:30:07.556Z,4.80
2023-07-24T21:33:08.948Z,3.80
2023-07-24T21:36:10.603Z,3.13
2023-07-24T21:39:12.047Z,6.18
2023-07-24T21:42:13.468Z,3.00
2023-07-24T21:45:14.965Z,4.57
2023-07-24T21:48:16.790Z,5.10
2023-07-24T21:51:18.210Z,8.02
2023-07-24T21:54:19.662Z,5.68
2023-07-24T21:57:22.664Z,6.07
2023-07-24T22:00:26.063Z,6.07
2023-07-24T22:03:27.590Z,8.32
2023-07-24T22:06:29.208Z,5.85
2023-07-24T22:09:31.096Z,4.10
2023-07-24T22:12:33.869Z,8.50
2023-07-24T22:15:35.338Z,7.57
2023-07-24T22:18:36.826Z,4.75
2023-07-24T22:21:38.248Z,5.15
2023-07-24T22:24:40.430Z,3.55
2023-07-24T22:27:41.972Z,7.97
2023-07-24T22:30:43.519Z,9.25
2023-07-24T22:33:44.949Z,6.68
2023-07-24T22:36:46.360Z,3.13
2023-07-24T22:39:48.079Z,5.90
2023-07-24T22:42:49.507Z,4.40
2023-07-24T22:45:51.070Z,3.72
2023-07-24T22:48:52.537Z,7.82
2023-07-24T22:51:54.419Z,4.13
2023-07-24T22:54:55.944Z,6.82
2023-07-24T22:57:57.975Z,8.38
2023-07-24T23:00:59.506Z,6.72
2023-07-24T23:04:01.018Z,7.35
2023-07-24T23:07:02.477Z,2.95
2023-07-24T23:10:04.159Z,6.35
2023-07-24T23:13:05.661Z,5.05
2023-07-24T23:16:07.315Z,4.88
2023-07-24T23:19:09.064Z,8.00
2023-07-24T23:22:10.529Z,8.48
2023-07-24T23:25:11.908Z,7.68
2023-07-24T23:28:14.421Z,5.45
2023-07-24T23:31:15.912Z,7.03
2023-07-24T23:34:17.364Z,3.58
2023-07-24T23:37:18.772Z,6.65
2023-07-24T23:40:20.177Z,7.82
2023-07-24T23:43:21.598Z,6.40
2023-07-24T23:46:23.061Z,6.72
2023-07-24T23:49:24.554Z,4.65
2023-07-24T23:52:25.976Z,7.40
2023-07-24T23:55:31.570Z,6.07
2023-07-24T23:58:32.970Z,10.15
